sensor_id;sensor_type;location;lat;lon;timestamp;pressure;altitude;pressure_sealevel;temperature;humidity
50592;BME280;36548;50.506;30.834;2023-02-20T00:01:37;99269.63;;;2.61;55.77
50592;BME280;36548;50.506;30.834;2023-02-20T00:02:47;99275.58;;;2.47;55.76
50592;BME280;36548;50.506;30.834;2023-02-20T00:03:56;99284.02;;;2.36;55.53
50592;BME280;36548;50.506;30.834;2023-02-20T00:05:08;99266.50;;;2.33;55.84
50592;BME280;36548;50.506;30.834;2023-02-20T00:06:18;99273.38;;;2.37;55.82
50592;BME280;36548;50.506;30.834;2023-02-20T00:07:28;99271.58;;;2.38;55.50
50592;BME280;36548;50.506;30.834;2023-02-20T00:08:38;99275.95;;;2.39;55.60
50592;BME280;36548;50.506;30.834;2023-02-20T00:09:48;99271.65;;;2.36;55.42
50592;BME280;36548;50.506;30.834;2023-02-20T00:10:57;99283.67;;;2.44;55.52
50592;BME280;36548;50.506;30.834;2023-02-20T00:12:06;99273.88;;;2.46;55.43
50592;BME280;36548;50.506;30.834;2023-02-20T00:13:15;99268.51;;;2.47;55.20
50592;BME280;36548;50.506;30.834;2023-02-20T00:14:24;99274.88;;;2.43;55.11
50592;BME280;36548;50.506;30.834;2023-02-20T00:15:33;99271.23;;;2.46;55.17
50592;BME280;36548;50.506;30.834;2023-02-20T00:16:47;99273.42;;;2.36;55.00
50592;BME280;36548;50.506;30.834;2023-02-20T00:18:03;99271.70;;;2.54;55.20
50592;BME280;36548;50.506;30.834;2023-02-20T00:19:12;99273.08;;;2.44;55.20
50592;BME280;36548;50.506;30.834;2023-02-20T00:20:24;99270.50;;;2.42;54.96
50592;BME280;36548;50.506;30.834;2023-02-20T00:21:35;99270.42;;;2.44;55.00
50592;BME280;36548;50.506;30.834;2023-02-20T00:22:45;99273.88;;;2.46;54.90
50592;BME280;36548;50.506;30.834;2023-02-20T00:23:55;99267.01;;;2.42;55.04
50592;BME280;36548;50.506;30.834;2023-02-20T00:25:05;99268.58;;;2.46;54.77
50592;BME280;36548;50.506;30.834;2023-02-20T00:26:15;99268.51;;;2.47;54.61
50592;BME280;36548;50.506;30.834;2023-02-20T00:27:25;99262.48;;;2.44;54.34
50592;BME280;36548;50.506;30.834;2023-02-20T00:28:41;99267.20;;;2.56;54.67
50592;BME280;36548;50.506;30.834;2023-02-20T00:29:50;99264.13;;;2.46;54.48
50592;BME280;36548;50.506;30.834;2023-02-20T00:31:00;99259.33;;;2.35;54.28
50592;BME280;36548;50.506;30.834;2023-02-20T00:32:08;99268.13;;;2.36;54.27
50592;BME280;36548;50.506;30.834;2023-02-20T00:33:18;99260.70;;;2.25;54.56
50592;BME280;36548;50.506;30.834;2023-02-20T00:34:29;99267.58;;;2.29;54.56
50592;BME280;36548;50.506;30.834;2023-02-20T00:35:38;99271.41;;;2.22;54.49
50592;BME280;36548;50.506;30.834;2023-02-20T00:36:47;99267.77;;;2.25;54.33
50592;BME280;36548;50.506;30.834;2023-02-20T00:37:57;99269.42;;;2.27;54.45
50592;BME280;36548;50.506;30.834;2023-02-20T00:39:06;99265.05;;;2.26;54.09
50592;BME280;36548;50.506;30.834;2023-02-20T00:40:17;99268.28;;;2.14;54.05
50592;BME280;36548;50.506;30.834;2023-02-20T00:41:33;99263.89;;;2.32;54.19
50592;BME280;36548;50.506;30.834;2023-02-20T00:42:42;99266.00;;;2.25;54.10
50592;BME280;36548;50.506;30.834;2023-02-20T00:43:51;99263.77;;;2.16;54.06
50592;BME280;36548;50.506;30.834;2023-02-20T00:45:03;99265.27;;;2.21;54.05
50592;BME280;36548;50.506;30.834;2023-02-20T00:46:18;99261.75;;;2.40;54.07
50592;BME280;36548;50.506;30.834;2023-02-20T00:47:30;99269.20;;;2.32;53.90
50592;BME280;36548;50.506;30.834;2023-02-20T00:48:39;99266.41;;;2.16;53.69
50592;BME280;36548;50.506;30.834;2023-02-20T00:50:07;99268.72;;;2.24;53.88
50592;BME280;36548;50.506;30.834;2023-02-20T00:51:16;99265.00;;;2.28;53.76
50592;BME280;36548;50.506;30.834;2023-02-20T00:52:26;99264.85;;;2.31;53.46
50592;BME280;36548;50.506;30.834;2023-02-20T00:53:37;99270.15;;;2.31;53.40
50592;BME280;36548;50.506;30.834;2023-02-20T00:54:46;99268.27;;;2.33;53.44
50592;BME280;36548;50.506;30.834;2023-02-20T00:55:55;99274.02;;;2.24;53.42
50592;BME280;36548;50.506;30.834;2023-02-20T00:57:06;99267.50;;;2.31;53.63
50592;BME280;36548;50.506;30.834;2023-02-20T00:58:15;99266.55;;;2.32;53.44
50592;BME280;36548;50.506;30.834;2023-02-20T00:59:24;99270.92;;;2.33;53.61
50592;BME280;36548;50.506;30.834;2023-02-20T01:00:36;99267.65;;;2.28;53.10
50592;BME280;36548;50.506;30.834;2023-02-20T01:01:47;99267.65;;;2.28;53.43
50592;BME280;36548;50.506;30.834;2023-02-20T01:02:55;99266.00;;;2.25;53.37
50592;BME280;36548;50.506;30.834;2023-02-20T01:04:04;99271.70;;;2.16;53.52
50592;BME280;36548;50.506;30.834;2023-02-20T01:05:13;99263.69;;;2.17;53.57
50592;BME280;36548;50.506;30.834;2023-02-20T01:06:24;99260.89;;;2.01;53.52
50592;BME280;36548;50.506;30.834;2023-02-20T01:07:34;99265.16;;;2.04;53.75
50592;BME280;36548;50.506;30.834;2023-02-20T01:08:44;99270.86;;;2.15;53.86
50592;BME280;36548;50.506;30.834;2023-02-20T01:09:52;99273.77;;;2.09;53.54
50592;BME280;36548;50.506;30.834;2023-02-20T01:11:02;99262.92;;;2.15;53.96
50592;BME280;36548;50.506;30.834;2023-02-20T01:12:11;99271.56;;;2.19;53.86
50592;BME280;36548;50.506;30.834;2023-02-20T01:13:20;99269.47;;;2.07;53.46
50592;BME280;36548;50.506;30.834;2023-02-20T01:14:31;99273.06;;;2.06;53.66
50592;BME280;36548;50.506;30.834;2023-02-20T01:15:42;99271.05;;;2.11;53.79
50592;BME280;36548;50.506;30.834;2023-02-20T01:16:53;99265.64;;;2.14;53.73
50592;BME280;36548;50.506;30.834;2023-02-20T01:18:02;99269.13;;;2.14;53.55
50592;BME280;36548;50.506;30.834;2023-02-20T01:19:14;99272.44;;;2.19;53.49
50592;BME280;36548;50.506;30.834;2023-02-20T01:20:25;99266.41;;;2.16;53.29
50592;BME280;36548;50.506;30.834;2023-02-20T01:21:35;99268.98;;;2.17;53.30
50592;BME280;36548;50.506;30.834;2023-02-20T01:22:45;99272.48;;;2.18;53.19
50592;BME280;36548;50.506;30.834;2023-02-20T01:23:55;99269.83;;;2.18;53.12
50592;BME280;36548;50.506;30.834;2023-02-20T01:25:05;99273.58;;;2.14;53.25
50592;BME280;36548;50.506;30.834;2023-02-20T01:26:14;99269.98;;;2.15;53.06
50592;BME280;36548;50.506;30.834;2023-02-20T01:27:23;99264.69;;;2.15;53.13
50592;BME280;36548;50.506;30.834;2023-02-20T01:28:32;99279.06;;;2.09;53.05
50592;BME280;36548;50.506;30.834;2023-02-20T01:29:44;99275.56;;;2.09;53.35
50592;BME280;36548;50.506;30.834;2023-02-20T01:30:55;99278.22;;;2.09;53.11
50592;BME280;36548;50.506;30.834;2023-02-20T01:32:06;99279.98;;;2.08;53.27
50592;BME280;36548;50.506;30.834;2023-02-20T01:33:15;99273.69;;;2.11;53.18
50592;BME280;36548;50.506;30.834;2023-02-20T01:34:25;99275.34;;;2.13;53.09
50592;BME280;36548;50.506;30.834;2023-02-20T01:35:36;99274.50;;;2.13;53.04
50592;BME280;36548;50.506;30.834;2023-02-20T01:38:24;99267.48;;;2.12;53.05
50592;BME280;36548;50.506;30.834;2023-02-20T01:39:33;99269.91;;;1.97;53.22
50592;BME280;36548;50.506;30.834;2023-02-20T01:40:47;99268.77;;;2.03;53.43
50592;BME280;36548;50.506;30.834;2023-02-20T01:42:00;99273.84;;;2.08;53.38
50592;BME280;36548;50.506;30.834;2023-02-20T01:43:10;99270.42;;;2.06;53.00
50592;BME280;36548;50.506;30.834;2023-02-20T01:44:23;99279.20;;;2.06;53.23
50592;BME280;36548;50.506;30.834;2023-02-20T01:45:36;99271.59;;;1.98;53.16
50592;BME280;36548;50.506;30.834;2023-02-20T01:46:52;99265.53;;;1.96;53.29
50592;BME280;36548;50.506;30.834;2023-02-20T01:48:04;99271.53;;;2.00;53.47
50592;BME280;36548;50.506;30.834;2023-02-20T01:49:18;99280.34;;;2.00;53.43
50592;BME280;36548;50.506;30.834;2023-02-20T01:50:37;99279.47;;;2.00;53.40
50592;BME280;36548;50.506;30.834;2023-02-20T01:51:50;99272.88;;;1.90;53.65
50592;BME280;36548;50.506;30.834;2023-02-20T01:53:04;99274.61;;;1.91;53.78
50592;BME280;36548;50.506;30.834;2023-02-20T01:54:16;99277.58;;;1.83;53.98
50592;BME280;36548;50.506;30.834;2023-02-20T01:55:34;99270.52;;;1.83;54.22
50592;BME280;36548;50.506;30.834;2023-02-20T01:56:46;99278.25;;;1.88;54.09
50592;BME280;36548;50.506;30.834;2023-02-20T01:58:00;99269.17;;;1.94;54.01
50592;BME280;36548;50.506;30.834;2023-02-20T01:59:18;99273.98;;;2.04;53.77
50592;BME280;36548;50.506;30.834;2023-02-20T02:00:29;99270.30;;;1.88;53.94
50592;BME280;36548;50.506;30.834;2023-02-20T02:01:38;99269.50;;;1.86;54.07
50592;BME280;36548;50.506;30.834;2023-02-20T02:02:59;99275.53;;;1.90;54.06
50592;BME280;36548;50.506;30.834;2023-02-20T02:04:10;99268.72;;;1.84;54.08
50592;BME280;36548;50.506;30.834;2023-02-20T02:05:21;99265.09;;;1.86;54.16
50592;BME280;36548;50.506;30.834;2023-02-20T02:06:36;99265.23;;;1.83;53.82
50592;BME280;36548;50.506;30.834;2023-02-20T02:07:46;99270.77;;;1.77;54.15
50592;BME280;36548;50.506;30.834;2023-02-20T02:08:58;99273.20;;;1.82;54.15
50592;BME280;36548;50.506;30.834;2023-02-20T02:10:19;99274.48;;;1.73;54.31
50592;BME280;36548;50.506;30.834;2023-02-20T02:11:28;99277.05;;;1.75;54.11
50592;BME280;36548;50.506;30.834;2023-02-20T02:12:39;99268.20;;;1.76;54.17
50592;BME280;36548;50.506;30.834;2023-02-20T02:13:49;99260.19;;;1.77;54.14
50592;BME280;36548;50.506;30.834;2023-02-20T02:14:59;99279.06;;;1.69;54.28
50592;BME280;36548;50.506;30.834;2023-02-20T02:22:09;99258.75;;;1.70;54.27
50592;BME280;36548;50.506;30.834;2023-02-20T02:26:32;99260.94;;;1.40;54.65
50592;BME280;36548;50.506;30.834;2023-02-20T02:29:31;99255.72;;;1.59;54.76
50592;BME280;36548;50.506;30.834;2023-02-20T02:33:46;99260.20;;;1.57;54.26
50592;BME280;36548;50.506;30.834;2023-02-20T02:40:55;99261.47;;;1.48;54.91
50592;BME280;36548;50.506;30.834;2023-02-20T02:49:54;99268.34;;;1.52;54.84
50592;BME280;36548;50.506;30.834;2023-02-20T02:51:10;99270.00;;;1.55;54.74
50592;BME280;36548;50.506;30.834;2023-02-20T02:52:22;99256.78;;;1.55;54.70
50592;BME280;36548;50.506;30.834;2023-02-20T02:54:05;99268.80;;;1.41;54.75
50592;BME280;36548;50.506;30.834;2023-02-20T02:55:23;99265.48;;;1.36;54.85
50592;BME280;36548;50.506;30.834;2023-02-20T02:56:36;99266.57;;;1.32;55.23
50592;BME280;36548;50.506;30.834;2023-02-20T02:57:48;99253.45;;;1.29;55.02
50592;BME280;36548;50.506;30.834;2023-02-20T02:58:59;99268.72;;;1.22;55.40
50592;BME280;36548;50.506;30.834;2023-02-20T03:00:23;99259.55;;;1.31;55.28
50592;BME280;36548;50.506;30.834;2023-02-20T03:01:36;99262.44;;;1.25;55.30
50592;BME280;36548;50.506;30.834;2023-02-20T03:04:12;99264.77;;;1.32;55.20
50592;BME280;36548;50.506;30.834;2023-02-20T03:05:24;99255.63;;;1.19;55.32
50592;BME280;36548;50.506;30.834;2023-02-20T03:06:40;99246.17;;;1.13;55.54
50592;BME280;36548;50.506;30.834;2023-02-20T03:07:54;99257.29;;;1.22;55.58
50592;BME280;36548;50.506;30.834;2023-02-20T03:10:21;99259.73;;;1.26;55.37
50592;BME280;36548;50.506;30.834;2023-02-20T03:11:35;99254.58;;;1.23;55.30
50592;BME280;36548;50.506;30.834;2023-02-20T03:12:52;99250.50;;;1.36;55.21
50592;BME280;36548;50.506;30.834;2023-02-20T03:15:48;99254.34;;;1.29;55.09
50592;BME280;36548;50.506;30.834;2023-02-20T03:18:49;99250.22;;;1.43;55.12
50592;BME280;36548;50.506;30.834;2023-02-20T03:20:05;99238.58;;;1.26;54.80
50592;BME280;36548;50.506;30.834;2023-02-20T03:21:17;99237.87;;;1.23;55.02
50592;BME280;36548;50.506;30.834;2023-02-20T03:22:37;99246.72;;;1.22;54.96
50592;BME280;36548;50.506;30.834;2023-02-20T03:23:55;99257.22;;;1.23;55.04
50592;BME280;36548;50.506;30.834;2023-02-20T03:25:18;99251.02;;;1.24;54.85
50592;BME280;36548;50.506;30.834;2023-02-20T03:26:31;99256.30;;;1.24;55.06
50592;BME280;36548;50.506;30.834;2023-02-20T03:29:22;99261.45;;;1.27;54.75
50592;BME280;36548;50.506;30.834;2023-02-20T03:30:54;99252.84;;;1.22;55.05
50592;BME280;36548;50.506;30.834;2023-02-20T03:32:06;99264.23;;;1.24;54.92
50592;BME280;36548;50.506;30.834;2023-02-20T03:33:42;99259.73;;;1.26;54.73
50592;BME280;36548;50.506;30.834;2023-02-20T03:35:12;99262.34;;;1.28;54.93
50592;BME280;36548;50.506;30.834;2023-02-20T03:36:46;99273.42;;;1.15;54.97
50592;BME280;36548;50.506;30.834;2023-02-20T03:38:16;99259.02;;;1.23;55.05
50592;BME280;36548;50.506;30.834;2023-02-20T03:39:48;99261.45;;;1.27;55.04
50592;BME280;36548;50.506;30.834;2023-02-20T03:41:17;99260.78;;;1.22;54.87
50592;BME280;36548;50.506;30.834;2023-02-20T03:42:55;99260.55;;;1.28;55.00
50592;BME280;36548;50.506;30.834;2023-02-20T03:44:24;99264.30;;;1.23;55.14
50592;BME280;36548;50.506;30.834;2023-02-20T03:45:38;99260.98;;;1.17;54.78
50592;BME280;36548;50.506;30.834;2023-02-20T03:46:52;99274.34;;;1.14;54.91
50592;BME280;36548;50.506;30.834;2023-02-20T03:48:07;99277.19;;;1.10;55.06
50592;BME280;36548;50.506;30.834;2023-02-20T03:49:26;99267.80;;;1.23;55.25
50592;BME280;36548;50.506;30.834;2023-02-20T03:50:56;99269.97;;;1.13;55.02
50592;BME280;36548;50.506;30.834;2023-02-20T03:52:09;99272.47;;;0.96;55.57
50592;BME280;36548;50.506;30.834;2023-02-20T03:53:20;99270.23;;;1.07;55.57
50592;BME280;36548;50.506;30.834;2023-02-20T03:54:31;99265.94;;;1.05;55.35
50592;BME280;36548;50.506;30.834;2023-02-20T03:55:42;99268.44;;;1.08;55.34
50592;BME280;36548;50.506;30.834;2023-02-20T03:57:01;99263.90;;;1.11;55.24
50592;BME280;36548;50.506;30.834;2023-02-20T03:58:18;99273.22;;;1.20;55.35
50592;BME280;36548;50.506;30.834;2023-02-20T04:00:54;99261.05;;;1.16;55.25
50592;BME280;36548;50.506;30.834;2023-02-20T04:02:13;99272.27;;;1.00;55.17
50592;BME280;36548;50.506;30.834;2023-02-20T04:03:28;99254.61;;;1.01;55.54
50592;BME280;36548;50.506;30.834;2023-02-20T04:04:43;99271.78;;;0.91;55.67
50592;BME280;36548;50.506;30.834;2023-02-20T04:05:54;99266.56;;;0.89;55.71
50592;BME280;36548;50.506;30.834;2023-02-20T04:07:11;99255.59;;;0.98;55.76
50592;BME280;36548;50.506;30.834;2023-02-20T04:08:23;99262.37;;;1.06;55.36
50592;BME280;36548;50.506;30.834;2023-02-20T04:09:35;99263.09;;;1.09;55.28
50592;BME280;36548;50.506;30.834;2023-02-20T04:10:58;99253.63;;;1.04;55.13
50592;BME280;36548;50.506;30.834;2023-02-20T04:13:40;99259.19;;;1.18;55.01
50592;BME280;36548;50.506;30.834;2023-02-20T04:14:51;99259.90;;;1.01;54.80
50592;BME280;36548;50.506;30.834;2023-02-20T04:16:02;99251.19;;;0.99;55.00
50592;BME280;36548;50.506;30.834;2023-02-20T04:17:15;99249.39;;;0.99;55.05
50592;BME280;36548;50.506;30.834;2023-02-20T04:18:27;99265.38;;;0.96;55.29
50592;BME280;36548;50.506;30.834;2023-02-20T04:19:38;99251.33;;;0.96;55.14
50592;BME280;36548;50.506;30.834;2023-02-20T04:20:54;99253.83;;;0.99;55.08
50592;BME280;36548;50.506;30.834;2023-02-20T04:22:16;99244.92;;;1.01;54.98
50592;BME280;36548;50.506;30.834;2023-02-20T04:23:27;99245.77;;;1.02;55.00
50592;BME280;36548;50.506;30.834;2023-02-20T04:26:01;99243.73;;;1.09;54.71
50592;BME280;36548;50.506;30.834;2023-02-20T04:27:13;99259.19;;;0.97;54.98
50592;BME280;36548;50.506;30.834;2023-02-20T04:28:25;99246.54;;;0.83;55.09
50592;BME280;36548;50.506;30.834;2023-02-20T04:29:39;99247.02;;;0.93;55.13
50592;BME280;36548;50.506;30.834;2023-02-20T04:30:48;99250.94;;;0.61;55.95
50592;BME280;36548;50.506;30.834;2023-02-20T04:32:06;99246.77;;;0.77;55.53
50592;BME280;36548;50.506;30.834;2023-02-20T04:33:17;99251.63;;;0.88;55.38
50592;BME280;36548;50.506;30.834;2023-02-20T04:34:27;99247.19;;;0.89;55.01
50592;BME280;36548;50.506;30.834;2023-02-20T04:35:39;99244.55;;;0.89;55.28
50592;BME280;36548;50.506;30.834;2023-02-20T04:36:50;99241.97;;;0.87;55.10
50592;BME280;36548;50.506;30.834;2023-02-20T04:38:00;99255.11;;;0.89;55.06
50592;BME280;36548;50.506;30.834;2023-02-20T04:39:10;99236.95;;;0.81;55.09
50592;BME280;36548;50.506;30.834;2023-02-20T04:40:25;99239.50;;;1.05;55.15
50592;BME280;36548;50.506;30.834;2023-02-20T04:41:35;99240.86;;;0.93;54.79
50592;BME280;36548;50.506;30.834;2023-02-20T04:42:45;99245.30;;;0.92;54.72
50592;BME280;36548;50.506;30.834;2023-02-20T04:43:53;99238.89;;;0.98;54.75
50592;BME280;36548;50.506;30.834;2023-02-20T04:45:09;99247.02;;;0.93;54.62
50592;BME280;36548;50.506;30.834;2023-02-20T04:46:18;99242.65;;;0.92;54.70
50592;BME280;36548;50.506;30.834;2023-02-20T04:47:27;99250.38;;;0.97;54.96
50592;BME280;36548;50.506;30.834;2023-02-20T04:48:37;99246.62;;;1.02;54.76
50592;BME280;36548;50.506;30.834;2023-02-20T04:49:47;99258.17;;;1.00;54.31
50592;BME280;36548;50.506;30.834;2023-02-20T04:50:58;99257.26;;;1.01;54.57
50592;BME280;36548;50.506;30.834;2023-02-20T04:52:09;99267.34;;;0.91;54.35
50592;BME280;36548;50.506;30.834;2023-02-20T04:53:18;99258.14;;;1.01;54.43
50592;BME280;36548;50.506;30.834;2023-02-20T04:54:27;99259.19;;;0.97;54.61
50592;BME280;36548;50.506;30.834;2023-02-20T04:55:36;99261.93;;;0.94;54.32
50592;BME280;36548;50.506;30.834;2023-02-20T04:56:47;99260.03;;;0.98;54.45
50592;BME280;36548;50.506;30.834;2023-02-20T04:57:56;99268.03;;;0.96;54.43
50592;BME280;36548;50.506;30.834;2023-02-20T04:59:08;99272.02;;;0.84;54.56
50592;BME280;36548;50.506;30.834;2023-02-20T05:00:19;99269.20;;;0.89;54.65
50592;BME280;36548;50.506;30.834;2023-02-20T05:01:31;99257.59;;;0.93;54.53
50592;BME280;36548;50.506;30.834;2023-02-20T05:02:41;99270.91;;;0.90;54.61
50592;BME280;36548;50.506;30.834;2023-02-20T05:03:50;99273.31;;;0.96;54.50
50592;BME280;36548;50.506;30.834;2023-02-20T05:05:00;99273.38;;;0.95;54.26
50592;BME280;36548;50.506;30.834;2023-02-20T05:06:09;99277.00;;;0.92;54.54
50592;BME280;36548;50.506;30.834;2023-02-20T05:07:19;99273.44;;;0.93;54.41
50592;BME280;36548;50.506;30.834;2023-02-20T05:08:30;99282.97;;;0.97;54.28
50592;BME280;36548;50.506;30.834;2023-02-20T05:09:42;99287.57;;;0.92;54.17
50592;BME280;36548;50.506;30.834;2023-02-20T05:10:52;99279.58;;;0.94;54.24
50592;BME280;36548;50.506;30.834;2023-02-20T05:12:01;99287.23;;;1.00;54.09
50592;BME280;36548;50.506;30.834;2023-02-20T05:13:16;99280.23;;;1.21;54.21
50592;BME280;36548;50.506;30.834;2023-02-20T05:14:26;99290.06;;;1.17;53.99
50592;BME280;36548;50.506;30.834;2023-02-20T05:15:35;99283.11;;;1.15;53.50
50592;BME280;36548;50.506;30.834;2023-02-20T05:16:44;99287.42;;;1.17;53.62
50592;BME280;36548;50.506;30.834;2023-02-20T05:17:54;99282.54;;;1.29;53.41
50592;BME280;36548;50.506;30.834;2023-02-20T05:19:03;99279.72;;;1.33;52.97
50592;BME280;36548;50.506;30.834;2023-02-20T05:20:14;99271.13;;;1.49;53.32
50592;BME280;36548;50.506;30.834;2023-02-20T05:21:23;99282.09;;;1.81;52.75
50592;BME280;36548;50.506;30.834;2023-02-20T05:22:51;99271.63;;;2.17;52.19
50592;BME280;36548;50.506;30.834;2023-02-20T05:24:00;99272.42;;;2.58;50.35
50592;BME280;36548;50.506;30.834;2023-02-20T05:25:09;99275.73;;;2.99;50.09
50592;BME280;36548;50.506;30.834;2023-02-20T05:26:22;99279.74;;;3.26;49.21
50592;BME280;36548;50.506;30.834;2023-02-20T05:27:32;99277.00;;;3.62;49.04
50592;BME280;36548;50.506;30.834;2023-02-20T05:28:42;99265.99;;;3.87;47.51
50592;BME280;36548;50.506;30.834;2023-02-20T05:29:56;99268.50;;;4.06;46.65
50592;BME280;36548;50.506;30.834;2023-02-20T05:31:06;99266.55;;;4.10;45.64
50592;BME280;36548;50.506;30.834;2023-02-20T05:32:20;99276.97;;;4.47;45.49
50592;BME280;36548;50.506;30.834;2023-02-20T05:33:29;99272.96;;;4.87;45.42
50592;BME280;36548;50.506;30.834;2023-02-20T05:34:38;99269.66;;;5.14;44.44
50592;BME280;36548;50.506;30.834;2023-02-20T05:35:47;99274.61;;;5.51;44.34
50592;BME280;36548;50.506;30.834;2023-02-20T05:37:02;99267.09;;;5.88;43.43
50592;BME280;36548;50.506;30.834;2023-02-20T05:38:16;99270.03;;;5.83;42.53
50592;BME280;36548;50.506;30.834;2023-02-20T05:39:26;99266.59;;;5.67;42.18
50592;BME280;36548;50.506;30.834;2023-02-20T05:40:35;99261.17;;;5.83;42.73
50592;BME280;36548;50.506;30.834;2023-02-20T05:41:44;99270.43;;;5.91;42.06
50592;BME280;36548;50.506;30.834;2023-02-20T05:42:53;99262.92;;;5.98;42.09
50592;BME280;36548;50.506;30.834;2023-02-20T05:44:02;99271.30;;;6.06;41.47
50592;BME280;36548;50.506;30.834;2023-02-20T05:45:13;99256.74;;;6.12;41.23
50592;BME280;36548;50.506;30.834;2023-02-20T05:46:28;99265.61;;;6.12;41.03
50592;BME280;36548;50.506;30.834;2023-02-20T05:47:37;99265.52;;;6.14;40.81
50592;BME280;36548;50.506;30.834;2023-02-20T05:48:50;99268.38;;;6.11;40.61
50592;BME280;36548;50.506;30.834;2023-02-20T05:50:00;99268.44;;;6.38;41.38
50592;BME280;36548;50.506;30.834;2023-02-20T05:51:18;99265.53;;;6.70;40.73
50592;BME280;36548;50.506;30.834;2023-02-20T05:52:22;99265.43;;;6.72;39.52
50592;BME280;36548;50.506;30.834;2023-02-20T05:53:31;99275.16;;;6.73;39.22
50592;BME280;36548;50.506;30.834;2023-02-20T05:54:41;99266.66;;;7.08;39.82
50592;BME280;36548;50.506;30.834;2023-02-20T05:55:51;99266.54;;;7.37;39.75
50592;BME280;36548;50.506;30.834;2023-02-20T05:57:01;99269.44;;;7.46;38.88
50592;BME280;36548;50.506;30.834;2023-02-20T05:58:10;99269.87;;;7.40;38.48
50592;BME280;36548;50.506;30.834;2023-02-20T05:59:22;99267.34;;;7.64;38.17
50592;BME280;36548;50.506;30.834;2023-02-20T06:00:31;99273.74;;;7.62;37.77
50592;BME280;36548;50.506;30.834;2023-02-20T06:01:40;99283.16;;;7.27;38.24
50592;BME280;36548;50.506;30.834;2023-02-20T06:02:49;99279.57;;;7.01;38.83
50592;BME280;36548;50.506;30.834;2023-02-20T06:03:59;99277.72;;;6.74;39.34
50592;BME280;36548;50.506;30.834;2023-02-20T06:05:12;99279.13;;;6.24;40.54
50592;BME280;36548;50.506;30.834;2023-02-20T06:06:38;99284.17;;;6.43;40.80
50592;BME280;36548;50.506;30.834;2023-02-20T06:07:48;99285.67;;;6.33;40.06
50592;BME280;36548;50.506;30.834;2023-02-20T06:08:57;99295.50;;;6.32;39.88
50592;BME280;36548;50.506;30.834;2023-02-20T06:10:07;99289.97;;;6.35;40.56
50592;BME280;36548;50.506;30.834;2023-02-20T06:11:17;99285.11;;;6.42;40.63
50592;BME280;36548;50.506;30.834;2023-02-20T06:12:26;99278.73;;;6.44;40.13
50592;BME280;36548;50.506;30.834;2023-02-20T06:13:35;99277.28;;;6.53;40.49
50592;BME280;36548;50.506;30.834;2023-02-20T06:14:44;99290.14;;;6.46;40.23
50592;BME280;36548;50.506;30.834;2023-02-20T06:15:52;99289.67;;;6.54;39.66
50592;BME280;36548;50.506;30.834;2023-02-20T06:17:01;99287.27;;;6.49;39.78
50592;BME280;36548;50.506;30.834;2023-02-20T06:18:10;99295.88;;;6.40;40.17
50592;BME280;36548;50.506;30.834;2023-02-20T06:19:22;99286.33;;;6.51;40.23
50592;BME280;36548;50.506;30.834;2023-02-20T06:20:32;99284.71;;;6.48;39.54
50592;BME280;36548;50.506;30.834;2023-02-20T06:21:45;99284.81;;;6.18;40.08
50592;BME280;36548;50.506;30.834;2023-02-20T06:22:54;99286.31;;;5.93;40.47
50592;BME280;36548;50.506;30.834;2023-02-20T06:24:13;99299.23;;;5.85;40.97
50592;BME280;36548;50.506;30.834;2023-02-20T06:25:22;99285.03;;;5.70;40.88
50592;BME280;36548;50.506;30.834;2023-02-20T06:26:31;99298.16;;;5.42;41.66
50592;BME280;36548;50.506;30.834;2023-02-20T06:27:41;99301.29;;;5.35;41.38
50592;BME280;36548;50.506;30.834;2023-02-20T06:28:51;99298.21;;;5.26;42.18
50592;BME280;36548;50.506;30.834;2023-02-20T06:30:02;99297.47;;;5.08;42.03
50592;BME280;36548;50.506;30.834;2023-02-20T06:31:12;99307.17;;;5.09;42.38
50592;BME280;36548;50.506;30.834;2023-02-20T06:32:20;99294.81;;;5.08;42.43
50592;BME280;36548;50.506;30.834;2023-02-20T06:33:36;99290.19;;;4.96;42.69
50592;BME280;36548;50.506;30.834;2023-02-20T06:34:45;99291.58;;;4.87;42.76
50592;BME280;36548;50.506;30.834;2023-02-20T06:35:54;99300.06;;;4.78;42.83
50592;BME280;36548;50.506;30.834;2023-02-20T06:37:04;99302.63;;;4.80;43.07
50592;BME280;36548;50.506;30.834;2023-02-20T06:38:13;99302.72;;;4.78;43.15
50592;BME280;36548;50.506;30.834;2023-02-20T06:39:22;99302.44;;;4.51;43.29
50592;BME280;36548;50.506;30.834;2023-02-20T06:40:38;99295.78;;;4.59;43.45
50592;BME280;36548;50.506;30.834;2023-02-20T06:41:47;99301.81;;;4.46;43.85
50592;BME280;36548;50.506;30.834;2023-02-20T06:42:57;99309.97;;;4.42;43.87
50592;BME280;36548;50.506;30.834;2023-02-20T06:44:06;99306.72;;;4.37;43.75
50592;BME280;36548;50.506;30.834;2023-02-20T06:45:15;99300.62;;;4.35;43.86
50592;BME280;36548;50.506;30.834;2023-02-20T06:46:25;99301.16;;;4.08;44.33
50592;BME280;36548;50.506;30.834;2023-02-20T06:47:34;99312.91;;;4.20;44.45
50592;BME280;36548;50.506;30.834;2023-02-20T06:50:08;99307.42;;;3.90;44.86
50592;BME280;36548;50.506;30.834;2023-02-20T06:51:18;99302.83;;;3.76;45.43
50592;BME280;36548;50.506;30.834;2023-02-20T06:52:34;99309.61;;;3.99;45.25
50592;BME280;36548;50.506;30.834;2023-02-20T06:53:43;99309.10;;;3.75;45.18
50592;BME280;36548;50.506;30.834;2023-02-20T06:54:53;99292.80;;;3.65;45.55
50592;BME280;36548;50.506;30.834;2023-02-20T06:56:05;99294.56;;;3.65;45.70
50592;BME280;36548;50.506;30.834;2023-02-20T06:57:21;99292.54;;;3.52;46.14
50592;BME280;36548;50.506;30.834;2023-02-20T06:58:30;99290.98;;;3.48;46.03
50592;BME280;36548;50.506;30.834;2023-02-20T06:59:39;99299.98;;;3.46;46.19
50592;BME280;36548;50.506;30.834;2023-02-20T07:00:49;99298.42;;;3.41;46.16
50592;BME280;36548;50.506;30.834;2023-02-20T07:01:57;99306.50;;;3.38;46.25
50592;BME280;36548;50.506;30.834;2023-02-20T07:03:07;99310.97;;;3.38;46.47
50592;BME280;36548;50.506;30.834;2023-02-20T07:04:24;99323.98;;;3.43;46.48
50592;BME280;36548;50.506;30.834;2023-02-20T07:05:38;99313.78;;;3.35;46.54
50592;BME280;36548;50.506;30.834;2023-02-20T07:06:47;99326.08;;;3.36;46.49